Time;durP1;ratioP1;P1;durP2;ratioP2;P2;SDS_P1;SDS_P2;PMS_P1;PMS_P2;Temp;Humidity;BMP_temperature;BMP_pressure;BME280_temperature;BME280_humidity;BME280_pressure;Samples;Min_cycle;Max_cycle;Signal;HPM_P1;HPM_P2
2021/04/29 00:00:20;;;;;;;21.40;11.53;;;;;;;7.71;66.16;100678.44;125639;1099;104265;-74
2021/04/29 00:03:09;;;;;;;21.53;11.93;;;;;;;7.71;66.35;100670.61;125660;1099;104168;-74
2021/04/29 00:05:38;;;;;;;20.10;11.17;;;;;;;7.74;66.23;100683.81;125600;1099;104169;-74
2021/04/29 00:08:06;;;;;;;20.70;11.63;;;;;;;7.77;66.69;100681.36;125601;1099;104281;-75
2021/04/29 00:10:35;;;;;;;22.50;11.93;;;;;;;7.81;66.63;100685.93;125633;1099;104344;-74
2021/04/29 00:13:04;;;;;;;23.60;11.30;;;;;;;7.86;66.63;100686.16;125644;1099;104168;-74
2021/04/29 00:15:33;;;;;;;20.03;11.07;;;;;;;7.89;66.34;100681.97;125608;1099;104396;-74
2021/04/29 00:18:02;;;;;;;21.47;11.93;;;;;;;7.89;66.41;100683.70;125669;1098;104322;-74
2021/04/29 00:20:31;;;;;;;24.93;13.10;;;;;;;7.90;66.78;100682.89;125620;1099;104297;-75
2021/04/29 00:22:59;;;;;;;25.30;13.37;;;;;;;7.91;66.26;100682.93;125690;1099;104236;-74
2021/04/29 00:25:28;;;;;;;23.70;13.23;;;;;;;7.91;66.81;100684.66;125641;1099;104341;-75
2021/04/29 00:27:57;;;;;;;24.13;13.77;;;;;;;7.91;66.77;100684.66;125670;1099;104168;-75
2021/04/29 00:30:26;;;;;;;24.80;14.80;;;;;;;7.91;66.55;100684.66;125695;1097;104300;-75
2021/04/29 00:32:55;;;;;;;25.43;14.13;;;;;;;7.90;66.40;100677.66;125644;1099;104363;-74
2021/04/29 00:35:23;;;;;;;23.07;13.93;;;;;;;7.90;66.17;100677.66;125574;1098;104168;-74
2021/04/29 00:37:52;;;;;;;20.73;12.70;;;;;;;7.89;66.38;100676.75;125659;1099;104296;-75
2021/04/29 00:40:21;;;;;;;25.03;14.60;;;;;;;7.89;66.44;100674.13;125644;1099;103430;-74
2021/04/29 00:42:49;;;;;;;23.80;13.87;;;;;;;7.90;66.82;100668.09;125648;1099;104704;-74
2021/04/29 00:45:18;;;;;;;23.57;14.77;;;;;;;7.90;66.57;100667.21;125636;1099;104172;-74
2021/04/29 00:47:50;;;;;;;25.03;15.33;;;;;;;7.89;66.83;100668.91;125671;1099;104175;-74
2021/04/29 00:50:21;;;;;;;27.27;15.63;;;;;;;7.87;66.70;100660.11;125658;1099;104192;-74
2021/04/29 00:52:50;;;;;;;24.50;16.03;;;;;;;7.87;66.97;100667.06;125658;1099;104210;-74
2021/04/29 00:55:19;;;;;;;25.93;15.47;;;;;;;7.86;66.88;100658.30;125644;1099;104223;-75
2021/04/29 00:57:48;;;;;;;24.57;15.97;;;;;;;7.85;66.65;100666.06;125637;1097;104194;-74
2021/04/29 01:00:19;;;;;;;26.47;15.60;;;;;;;7.85;66.76;100666.98;125658;1099;104217;-75
2021/04/29 01:02:51;;;;;;;26.37;15.93;;;;;;;7.86;66.43;100662.64;125654;1099;104201;-74
2021/04/29 01:05:24;;;;;;;23.00;14.43;;;;;;;7.86;66.80;100658.30;125592;1099;104248;-74
2021/04/29 01:07:58;;;;;;;24.27;15.07;;;;;;;7.85;66.42;100656.53;125655;1099;104168;-74
2021/04/29 01:10:32;;;;;;;24.67;14.80;;;;;;;7.84;66.55;100651.23;125642;1097;104201;-75
2021/04/29 01:13:07;;;;;;;23.45;13.98;;;;;;;7.82;67.10;100659.00;125653;1099;104169;-74
2021/04/29 01:15:40;;;;;;;27.60;14.80;;;;;;;7.78;66.77;100650.94;125609;1097;104402;-75
2021/04/29 01:18:11;;;;;;;23.77;15.15;;;;;;;7.72;66.47;100649.78;125690;1097;104175;-74
2021/04/29 01:20:46;;;;;;;23.77;14.83;;;;;;;7.70;66.68;100656.66;125646;1099;104238;-75
2021/04/29 01:23:28;;;;;;;27.23;16.03;;;;;;;7.66;66.86;100646.87;125622;1097;104178;-74
2021/04/29 01:26:02;;;;;;;24.07;15.60;;;;;;;7.62;66.73;100647.56;125014;1099;104417;-75
2021/04/29 01:28:32;;;;;;;28.07;17.73;;;;;;;7.59;66.59;100651.70;125577;1099;104309;-74
2021/04/29 01:31:02;;;;;;;32.70;19.20;;;;;;;7.55;66.91;100651.55;125562;1099;104318;-74
2021/04/29 01:33:31;;;;;;;31.63;18.87;;;;;;;7.55;66.65;100653.28;125553;1098;104248;-75
2021/04/29 01:36:01;;;;;;;29.13;17.93;;;;;;;7.56;66.94;100655.97;125403;1099;104367;-74
2021/04/29 01:38:30;;;;;;;29.53;19.17;;;;;;;7.59;66.79;100651.70;124941;1099;105847;-74
2021/04/29 01:40:59;;;;;;;36.40;23.30;;;;;;;7.59;67.14;100649.09;124933;1099;104166;-74
2021/04/29 01:43:29;;;;;;;35.60;22.37;;;;;;;7.58;66.96;100652.55;124919;1099;104169;-74
2021/04/29 01:45:59;;;;;;;36.13;23.47;;;;;;;7.55;66.94;100651.55;124918;1099;104178;-74
2021/04/29 01:48:28;;;;;;;37.63;24.60;;;;;;;7.54;66.93;100657.62;125502;1099;107044;-75
2021/04/29 01:50:57;;;;;;;37.10;24.80;;;;;;;7.52;67.22;100654.01;124946;1099;104469;-74
2021/04/29 01:53:27;;;;;;;40.07;25.67;;;;;;;7.53;67.11;100655.81;125552;1098;104457;-74
2021/04/29 01:55:56;;;;;;;43.03;27.37;;;;;;;7.51;67.32;100651.32;125588;1099;104257;-74
2021/04/29 01:58:25;;;;;;;39.27;26.17;;;;;;;7.48;67.14;100652.09;125489;1099;104181;-74
2021/04/29 02:00:54;;;;;;;41.23;26.77;;;;;;;7.47;67.05;100655.50;125621;1099;104206;-74
2021/04/29 02:03:22;;;;;;;39.73;26.63;;;;;;;7.47;67.17;100658.11;125662;1099;104172;-75
2021/04/29 02:05:51;;;;;;;42.83;26.23;;;;;;;7.45;67.30;100657.16;125667;1099;104163;-75
2021/04/29 02:08:20;;;;;;;37.97;24.73;;;;;;;7.45;67.33;100659.77;125670;1099;104290;-74
2021/04/29 02:10:50;;;;;;;36.90;24.13;;;;;;;7.45;67.37;100651.93;125678;1098;104158;-75
2021/04/29 02:13:20;;;;;;;36.67;23.83;;;;;;;7.43;67.21;100656.16;125638;1099;104446;-74
2021/04/29 02:15:55;;;;;;;37.17;24.70;;;;;;;7.42;67.50;100661.30;125657;1099;104162;-74
2021/04/29 02:18:25;;;;;;;40.40;25.67;;;;;;;7.39;67.68;100651.62;125661;1099;104171;-74
2021/04/29 02:20:56;;;;;;;37.40;25.37;;;;;;;7.39;67.37;100649.00;125669;1099;104171;-74
2021/04/29 02:23:26;;;;;;;43.63;29.63;;;;;;;7.40;67.46;100662.95;125675;1099;104194;-74
2021/04/29 02:25:57;;;;;;;44.43;28.17;;;;;;;7.36;67.88;100659.30;125634;1100;104178;-74
2021/04/29 02:28:28;;;;;;;61.47;40.83;;;;;;;7.34;67.55;100653.11;125592;1099;104287;-74
2021/04/29 02:30:58;;;;;;;68.10;42.27;;;;;;;7.30;67.67;100651.14;125638;1099;104179;-74
2021/04/29 02:33:27;;;;;;;55.70;36.03;;;;;;;7.27;67.86;100653.59;125677;1099;104184;-75
2021/04/29 02:35:55;;;;;;;61.63;39.43;;;;;;;7.19;67.41;100643.65;125621;1099;103649;-74
2021/04/29 02:38:25;;;;;;;60.30;38.93;;;;;;;7.17;67.62;100653.13;125604;1099;104280;-74
2021/04/29 02:40:54;;;;;;;60.97;40.70;;;;;;;7.19;67.80;100653.20;125663;1099;104204;-75
2021/04/29 02:43:24;;;;;;;60.73;38.23;;;;;;;7.19;67.47;100650.59;125671;1099;104172;-75
2021/04/29 02:45:53;;;;;;;58.47;35.20;;;;;;;7.22;67.92;100658.58;125698;1099;104233;-74
2021/04/29 02:48:22;;;;;;;54.83;34.27;;;;;;;7.27;67.49;100654.48;125623;1099;104315;-74
2021/04/29 02:50:51;;;;;;;51.20;33.67;;;;;;;7.29;67.69;100650.26;125612;1099;104411;-75
2021/04/29 02:53:20;;;;;;;49.27;32.70;;;;;;;7.32;67.74;100652.11;125669;1099;105097;-75
2021/04/29 02:55:50;;;;;;;51.17;33.60;;;;;;;7.35;67.92;100657.48;125640;1099;104214;-75
2021/04/29 02:58:19;;;;;;;56.47;35.97;;;;;;;7.35;67.68;100652.27;125673;1099;104165;-74
2021/04/29 03:00:51;;;;;;;55.60;35.03;;;;;;;7.36;67.93;100649.73;125670;1099;104290;-74
2021/04/29 03:03:20;;;;;;;56.97;36.97;;;;;;;7.35;67.90;100652.27;125613;1099;104178;-74
2021/04/29 03:05:49;;;;;;;55.10;37.10;;;;;;;7.30;67.68;100651.14;125669;1099;104221;-74
2021/04/29 03:08:18;;;;;;;57.43;35.37;;;;;;;7.27;67.90;100656.21;125640;1099;104182;-74
2021/04/29 03:10:46;;;;;;;52.80;31.43;;;;;;;7.22;67.99;100653.36;125672;1099;104182;-74
2021/04/29 03:13:15;;;;;;;48.83;29.37;;;;;;;7.20;67.98;100648.06;125669;1099;104172;-75
2021/04/29 03:15:43;;;;;;;41.13;27.33;;;;;;;7.20;68.00;100655.89;125631;1099;104175;-75
2021/04/29 03:18:12;;;;;;;42.73;25.43;;;;;;;7.25;68.22;100663.08;125675;1099;104169;-74
2021/04/29 03:20:41;;;;;;;45.00;23.90;;;;;;;7.24;67.85;100656.05;125620;1099;104175;-74
2021/04/29 03:23:10;;;;;;;46.77;24.70;;;;;;;7.26;67.89;100663.16;125554;1099;104159;-75
2021/04/29 03:25:39;;;;;;;41.77;24.93;;;;;;;7.29;68.24;100663.31;125619;1099;104271;-74
2021/04/29 03:28:09;;;;;;;48.50;29.23;;;;;;;7.33;68.37;100666.97;125583;1099;104162;-75
2021/04/29 03:30:38;;;;;;;49.75;28.60;;;;;;;7.36;68.07;100672.34;125651;1099;104232;-74
2021/04/29 03:33:06;;;;;;;48.23;29.13;;;;;;;7.36;67.97;100672.34;125663;1099;104287;-75
2021/04/29 03:35:35;;;;;;;46.00;29.20;;;;;;;7.36;68.15;100665.40;125632;1099;104163;-75
2021/04/29 03:38:05;;;;;;;45.03;29.23;;;;;;;7.31;67.92;100671.22;125635;1098;104172;-75
2021/04/29 03:40:34;;;;;;;44.23;28.17;;;;;;;7.26;68.25;100670.06;125567;1099;104331;-75
2021/04/29 03:43:05;;;;;;;41.33;26.17;;;;;;;7.21;68.12;100664.61;125681;1099;104171;-75
2021/04/29 03:45:34;;;;;;;39.53;25.20;;;;;;;7.24;68.55;100669.09;125632;1097;104181;-75
2021/04/29 03:48:04;;;;;;;41.23;25.77;;;;;;;7.27;68.06;100672.75;125670;1097;104166;-75
2021/04/29 03:50:32;;;;;;;42.20;23.53;;;;;;;7.31;67.98;100672.11;125595;1099;104297;-75
2021/04/29 03:53:01;;;;;;;45.50;23.65;;;;;;;7.38;68.37;100678.53;125523;1097;105329;-75
2021/04/29 03:55:30;;;;;;;38.80;23.97;;;;;;;7.41;68.00;100676.08;125643;1099;104191;-75
2021/04/29 03:57:59;;;;;;;46.27;26.33;;;;;;;7.42;67.92;100672.66;125627;1096;104162;-75
2021/04/29 04:00:30;;;;;;;42.40;25.97;;;;;;;7.44;67.98;100672.73;125636;1099;104283;-75
2021/04/29 04:02:59;;;;;;;46.00;26.97;;;;;;;7.46;68.50;100678.92;125630;1099;104187;-76
2021/04/29 04:05:28;;;;;;;40.83;26.40;;;;;;;7.47;68.38;100673.78;125589;1099;104651;-75
2021/04/29 04:07:57;;;;;;;42.50;27.33;;;;;;;7.48;68.50;100666.83;125662;1099;104172;-75
2021/04/29 04:10:26;;;;;;;46.20;26.60;;;;;;;7.46;68.53;100666.75;125594;1099;102832;-75
2021/04/29 04:12:55;;;;;;;44.30;24.40;;;;;;;7.47;68.51;100665.06;125669;1100;104159;-75
2021/04/29 04:15:24;;;;;;;42.73;22.57;;;;;;;7.49;68.47;100664.30;125647;1099;104258;-75
2021/04/29 04:17:53;;;;;;;46.03;23.27;;;;;;;7.53;68.37;100657.54;125601;1099;104290;-75
2021/04/29 04:20:22;;;;;;;43.30;24.03;;;;;;;7.59;68.63;100659.55;125574;1098;104273;-75
2021/04/29 04:22:51;;;;;;;40.93;23.20;;;;;;;7.64;68.57;100664.19;125619;1099;104171;-74
2021/04/29 04:25:20;;;;;;;40.30;23.17;;;;;;;7.72;68.42;100661.96;125621;1099;104163;-75
2021/04/29 04:27:49;;;;;;;43.00;23.67;;;;;;;7.76;68.62;100671.75;125642;1099;104242;-75
2021/04/29 04:30:18;;;;;;;36.77;21.23;;;;;;;7.78;68.18;100675.33;125522;1097;104204;-75
2021/04/29 04:32:47;;;;;;;42.30;22.73;;;;;;;7.77;68.44;100676.14;125631;1099;104201;-74
2021/04/29 04:35:16;;;;;;;41.57;23.60;;;;;;;7.79;68.46;100670.98;125648;1099;104184;-75
2021/04/29 04:37:45;;;;;;;35.20;21.77;;;;;;;7.81;68.31;100680.70;125605;1099;104230;-75
2021/04/29 04:40:15;;;;;;;42.03;20.70;;;;;;;7.83;68.28;100675.55;125595;1099;104166;-75
2021/04/29 04:42:44;;;;;;;31.47;18.80;;;;;;;7.90;68.58;100669.83;125556;1102;104269;-75
2021/04/29 04:45:29;;;;;;;28.40;17.00;;;;;;;7.96;68.80;100672.70;125528;1099;104776;-76
2021/04/29 04:48:04;;;;;;;31.70;17.37;;;;;;;8.05;68.77;100667.93;125644;1099;104175;-75
2021/04/29 04:50:33;;;;;;;31.87;18.53;;;;;;;8.23;69.04;100672.27;125605;1099;104197;-75
2021/04/29 04:53:02;;;;;;;29.07;15.60;;;;;;;8.40;68.79;100665.23;125656;1099;104268;-75
2021/04/29 04:55:33;;;;;;;26.00;15.53;;;;;;;8.56;68.89;100662.53;125607;1099;104178;-75
2021/04/29 04:58:02;;;;;;;28.40;15.65;;;;;;;8.73;68.33;100654.58;125646;1097;104332;-75
2021/04/29 05:00:31;;;;;;;27.73;16.83;;;;;;;8.89;68.11;100654.42;125603;1099;104297;-75
2021/04/29 05:03:00;;;;;;;28.93;17.17;;;;;;;9.06;68.84;100652.56;125662;1099;104171;-75
2021/04/29 05:05:29;;;;;;;26.80;15.33;;;;;;;9.28;68.38;100651.77;125602;1099;104287;-77
2021/04/29 05:08:00;;;;;;;27.73;15.10;;;;;;;9.48;68.74;100659.59;125630;1099;104235;-77
2021/04/29 05:10:31;;;;;;;24.57;15.03;;;;;;;9.70;68.06;100650.91;125659;1098;104233;-77
2021/04/29 05:13:00;;;;;;;24.80;15.60;;;;;;;9.91;68.16;100656.16;125587;1099;104166;-76
2021/04/29 05:15:29;;;;;;;26.20;14.20;;;;;;;10.05;67.62;100662.84;125650;1099;104169;-79
2021/04/29 05:17:58;;;;;;;25.13;15.67;;;;;;;10.16;67.64;100663.28;125645;1099;104197;-78
2021/04/29 05:20:28;;;;;;;24.23;14.27;;;;;;;10.29;67.58;100658.52;125603;1099;104318;-79
2021/04/29 05:22:57;;;;;;;28.07;15.97;;;;;;;10.34;67.55;100659.62;125685;1099;104176;-78
2021/04/29 05:25:26;;;;;;;31.53;15.90;;;;;;;10.39;67.79;100658.98;125711;1096;104293;-79
2021/04/29 05:27:58;;;;;;;25.60;15.13;;;;;;;10.49;67.80;100657.59;125775;1099;102276;-79
2021/04/29 05:30:28;;;;;;;25.17;14.33;;;;;;;10.56;67.52;100653.47;125648;1099;104172;-78
2021/04/29 05:32:56;;;;;;;26.73;15.60;;;;;;;10.62;67.20;100651.08;125600;1099;104296;-77
2021/04/29 05:35:28;;;;;;;27.70;16.07;;;;;;;10.64;67.50;100654.64;125609;1099;104156;-78
2021/04/29 05:37:56;;;;;;;28.97;16.67;;;;;;;10.68;67.17;100653.93;125643;1099;104172;-78
2021/04/29 05:40:25;;;;;;;30.50;17.43;;;;;;;10.72;67.50;100647.97;125602;1099;104166;-79
2021/04/29 05:42:55;;;;;;;26.57;15.53;;;;;;;10.75;67.42;100649.80;125625;1099;118987;-76
2021/04/29 05:45:24;;;;;;;28.63;17.00;;;;;;;10.72;67.09;100647.97;125577;1099;104186;-77
2021/04/29 05:47:55;;;;;;;28.53;17.33;;;;;;;10.71;67.20;100643.55;125653;1099;104163;-77
2021/04/29 05:50:25;;;;;;;29.00;16.10;;;;;;;10.70;67.28;100641.75;125615;1099;104239;-77
2021/04/29 05:52:54;;;;;;;33.27;17.97;;;;;;;10.73;67.54;100652.36;125643;1098;104163;-77
2021/04/29 05:55:23;;;;;;;29.10;16.63;;;;;;;10.76;67.44;100641.09;125704;1099;104178;-77
2021/04/29 05:57:57;;;;;;;33.77;18.53;;;;;;;10.78;66.91;100645.58;125610;1099;104267;-77
2021/04/29 06:00:26;;;;;;;30.77;17.30;;;;;;;10.83;67.24;100644.83;125645;1099;104293;-77
2021/04/29 06:02:59;;;;;;;30.70;17.15;;;;;;;10.87;67.06;100650.25;125638;1099;104217;-79
2021/04/29 06:05:28;;;;;;;33.23;17.77;;;;;;;10.90;67.18;100655.62;125881;1099;104182;-78
2021/04/29 06:07:58;;;;;;;30.40;17.13;;;;;;;10.95;67.05;100655.78;125655;1099;104263;-78
2021/04/29 06:10:28;;;;;;;28.10;16.03;;;;;;;11.02;67.18;100649.05;125500;1099;104171;-78
2021/04/29 06:12:57;;;;;;;27.63;15.53;;;;;;;11.10;67.17;100651.09;125629;1099;104172;-78
2021/04/29 06:15:28;;;;;;;27.07;15.10;;;;;;;11.21;66.83;100650.59;125634;1098;104172;-77
2021/04/29 06:17:58;;;;;;;29.47;15.30;;;;;;;11.38;66.68;100654.70;125744;1099;104758;-77
2021/04/29 06:20:28;;;;;;;29.30;16.63;;;;;;;11.44;66.54;100646.15;125800;1099;104824;-78
2021/04/29 06:22:57;;;;;;;31.50;16.93;;;;;;;11.57;66.69;100657.97;125651;1098;104239;-76
2021/04/29 06:25:28;;;;;;;27.80;16.23;;;;;;;11.65;66.76;100651.22;125651;1099;104195;-76
2021/04/29 06:27:58;;;;;;;29.23;16.27;;;;;;;11.76;66.42;100648.95;125642;1099;104175;-78
2021/04/29 06:30:28;;;;;;;33.63;17.30;;;;;;;11.91;66.39;100648.58;125672;1099;104242;-78
2021/04/29 06:32:57;;;;;;;28.97;16.77;;;;;;;11.98;66.42;100643.61;125583;1098;104172;-77
2021/04/29 06:35:26;;;;;;;28.03;16.77;;;;;;;12.08;66.19;100644.78;125641;1099;104204;-78
2021/04/29 06:37:58;;;;;;;27.85;16.25;;;;;;;12.26;66.54;100644.45;125639;1099;104204;-77
2021/04/29 06:40:27;;;;;;;29.80;15.63;;;;;;;12.46;65.87;100634.54;125577;1099;104332;-77
2021/04/29 06:42:56;;;;;;;24.37;14.90;;;;;;;12.63;65.89;100642.06;125601;1099;104345;-77
2021/04/29 06:45:25;;;;;;;26.80;14.90;;;;;;;12.80;65.64;100630.27;125572;1099;104243;-76
2021/04/29 06:48:12;;;;;;;28.27;15.80;;;;;;;13.02;65.57;100636.15;125579;1099;104319;-76
2021/04/29 06:51:14;;;;;;;23.20;12.95;;;;;;;13.24;66.10;100621.81;125444;1099;104344;-75
2021/04/29 06:53:46;;;;;;;;;;;;;;;13.42;64.99;100626.73;125615;1099;105467;-74
2021/04/29 06:56:19;;;;;;;28.20;14.10;;;;;;;13.48;64.81;100624.25;125634;1099;104158;-75
2021/04/29 06:59:02;;;;;;;23.47;13.37;;;;;;;13.51;64.31;100629.60;125577;1099;104318;-75
2021/04/29 07:01:38;;;;;;;27.03;14.07;;;;;;;13.53;64.67;100625.25;125593;1099;104626;-74
2021/04/29 07:04:08;;;;;;;22.83;12.90;;;;;;;13.61;64.71;100623.69;125556;1098;104312;-75
2021/04/29 07:06:38;;;;;;;23.07;13.43;;;;;;;13.68;64.60;100634.39;125561;1099;104229;-74
2021/04/29 07:09:07;;;;;;;25.57;13.27;;;;;;;13.82;65.14;100631.27;125675;1099;104191;-73
2021/04/29 07:11:36;;;;;;;24.53;13.47;;;;;;;13.94;64.31;100630.64;125645;1099;104171;-75
2021/04/29 07:14:05;;;;;;;26.37;15.63;;;;;;;14.02;64.50;100629.11;125607;1099;104175;-75
2021/04/29 07:16:35;;;;;;;27.80;14.77;;;;;;;14.03;63.74;100636.14;125624;1099;104156;-76
2021/04/29 07:19:04;;;;;;;25.27;13.57;;;;;;;14.05;64.22;100627.38;125622;1099;104165;-76
2021/04/29 07:21:36;;;;;;;23.47;13.40;;;;;;;14.18;63.67;100626.83;125638;1099;104230;-76
2021/04/29 07:24:06;;;;;;;23.87;12.97;;;;;;;14.29;63.68;100624.41;125572;1099;104409;-76
2021/04/29 07:26:35;;;;;;;25.17;14.40;;;;;;;14.51;63.74;100628.44;125576;1099;104239;-76
2021/04/29 07:29:05;;;;;;;24.53;13.47;;;;;;;14.61;64.27;100630.42;125633;1099;104156;-76
2021/04/29 07:31:34;;;;;;;22.40;11.27;;;;;;;14.78;63.75;100624.62;125668;1099;104239;-79
2021/04/29 07:37:05;;;;;;;21.83;12.10;;;;;;;15.03;63.32;100618.95;125711;1099;104290;-76
2021/04/29 07:39:35;;;;;;;23.17;12.10;;;;;;;15.22;63.30;100629.87;125715;1099;102285;-75
2021/04/29 07:42:08;;;;;;;24.40;13.67;;;;;;;15.36;62.26;100622.20;125643;1099;104169;-76
2021/04/29 07:44:38;;;;;;;20.67;10.40;;;;;;;15.45;61.82;100615.31;125559;1099;104535;-76
2021/04/29 07:47:07;;;;;;;21.77;12.47;;;;;;;15.49;62.02;100618.02;125658;1099;104290;-76
2021/04/29 07:49:36;;;;;;;21.10;11.43;;;;;;;15.58;62.31;100619.08;125523;1099;104223;-77
2021/04/29 07:52:06;;;;;;;22.97;11.03;;;;;;;15.76;61.84;100623.78;125575;1098;104175;-77
2021/04/29 07:54:35;;;;;;;20.60;11.03;;;;;;;15.77;61.07;100630.89;125612;1099;104354;-78
2021/04/29 07:57:20;;;;;;;18.80;10.23;;;;;;;15.76;60.25;100618.48;125681;1099;104514;-77
2021/04/29 07:59:57;;;;;;;21.33;9.60;;;;;;;15.94;60.49;100612.64;125654;1099;104232;-76
2021/04/29 08:02:26;;;;;;;16.03;7.87;;;;;;;16.13;60.40;100613.80;125602;1099;104674;-75
2021/04/29 08:04:55;;;;;;;11.60;6.27;;;;;;;16.09;59.57;100601.38;125602;1099;104191;-76
2021/04/29 08:07:24;;;;;;;13.73;6.83;;;;;;;16.14;59.66;100604.09;125627;1099;104211;-75
2021/04/29 08:09:53;;;;;;;13.13;6.33;;;;;;;16.28;59.91;100606.94;125627;1099;104194;-76
2021/04/29 08:12:23;;;;;;;12.83;6.87;;;;;;;16.48;59.47;100597.50;125678;1098;104175;-77
2021/04/29 08:14:57;;;;;;;16.60;7.63;;;;;;;16.49;59.07;100607.23;125705;1099;104169;-77
2021/04/29 08:17:43;;;;;;;15.03;8.17;;;;;;;16.54;59.51;100599.35;125590;1099;104166;-77
2021/04/29 08:20:14;;;;;;;15.73;8.03;;;;;;;16.57;58.48;100598.52;125610;1099;104223;-76
2021/04/29 08:22:44;;;;;;;18.00;7.77;;;;;;;16.56;58.80;100596.72;125580;1099;104285;-76
2021/04/29 08:25:14;;;;;;;14.73;7.70;;;;;;;16.67;58.55;100600.39;125650;1099;104172;-76
2021/04/29 08:28:24;;;;;;;16.67;7.77;;;;;;;16.78;59.07;100600.52;125779;1099;104284;-79
2021/04/29 08:30:55;;;;;;;12.90;7.33;;;;;;;16.99;59.11;100599.92;125724;1099;104313;-77
2021/04/29 08:33:42;;;;;;;16.77;8.27;;;;;;;17.19;58.50;100597.48;126059;1099;104229;-77
2021/04/29 08:36:30;;;;;;;17.67;9.23;;;;;;;17.36;58.19;100595.01;125760;1099;104548;-77
2021/04/29 08:39:18;;;;;;;17.95;7.90;;;;;;;17.47;57.96;100595.08;125583;1099;104274;-76
2021/04/29 08:41:56;;;;;;;14.97;7.70;;;;;;;17.54;57.35;100581.88;124997;1099;104454;-77
2021/04/29 08:44:42;;;;;;;10.67;6.33;;;;;;;17.60;56.15;100589.89;124882;1102;104900;-77
2021/04/29 08:47:15;;;;;;;11.93;6.50;;;;;;;17.72;56.71;100591.77;124921;1099;104226;-77
2021/04/29 08:49:45;;;;;;;13.67;7.07;;;;;;;17.77;56.98;100599.77;124849;1102;104188;-76
2021/04/29 08:52:16;;;;;;;12.20;6.27;;;;;;;17.71;56.62;100583.80;124873;1099;104325;-78
2021/04/29 08:54:47;;;;;;;13.40;6.77;;;;;;;17.69;56.04;100588.21;124902;1099;104175;-76
2021/04/29 08:57:17;;;;;;;11.90;6.43;;;;;;;17.72;56.20;100590.89;124954;1099;104329;-76
2021/04/29 08:59:49;;;;;;;12.77;6.97;;;;;;;17.80;56.21;100583.86;125260;1099;104217;-76
2021/04/29 09:02:30;;;;;;;11.90;6.45;;;;;;;17.85;56.38;100582.13;125634;1099;104507;-76
2021/04/29 09:05:09;;;;;;;17.07;6.23;;;;;;;18.00;54.30;100583.13;125632;1099;104194;-76
2021/04/29 09:07:58;;;;;;;11.43;6.23;;;;;;;18.03;54.28;100585.80;125593;1099;104237;-75
2021/04/29 09:10:33;;;;;;;10.03;5.80;;;;;;;18.14;54.81;100581.48;125861;1099;104354;-76
2021/04/29 09:13:14;;;;;;;11.63;5.90;;;;;;;18.17;54.46;100573.53;125528;1099;104162;-76
2021/04/29 09:15:45;;;;;;;11.80;5.97;;;;;;;18.29;54.42;100581.56;125610;1099;104169;-75
2021/04/29 09:18:15;;;;;;;10.97;5.60;;;;;;;18.31;53.80;100576.27;125506;1099;104232;-76
2021/04/29 09:20:56;;;;;;;9.93;5.50;;;;;;;18.29;54.19;100568.28;125562;1099;104243;-76
2021/04/29 09:23:28;;;;;;;9.20;4.70;;;;;;;18.26;54.07;100568.27;125575;1099;104175;-76
2021/04/29 09:25:59;;;;;;;11.27;5.40;;;;;;;18.24;54.04;100566.47;125500;1099;104198;-77
2021/04/29 09:28:36;;;;;;;11.20;5.90;;;;;;;18.36;53.73;100565.66;125605;1099;104175;-76
2021/04/29 09:31:11;;;;;;;8.50;5.10;;;;;;;18.56;53.12;100561.31;125607;1099;104325;-77
2021/04/29 09:33:42;;;;;;;13.53;6.00;;;;;;;18.82;53.40;100560.50;125555;1099;104357;-77
2021/04/29 09:39:33;;;;;;;11.60;5.33;;;;;;;19.13;53.16;100563.27;125408;1099;104163;-77
2021/04/29 09:42:05;;;;;;;12.33;5.87;;;;;;;19.05;52.85;100560.59;125574;1099;104232;-77
2021/04/29 09:44:36;;;;;;;10.67;5.20;;;;;;;18.91;53.35;100557.89;125523;1099;104140;-75
2021/04/29 09:47:11;;;;;;;14.33;5.87;;;;;;;18.80;52.85;100556.95;125529;1099;104239;-75
2021/04/29 09:49:40;;;;;;;10.93;5.27;;;;;;;18.84;53.21;100558.75;125620;1099;104293;-75
2021/04/29 09:52:19;;;;;;;10.37;5.30;;;;;;;18.86;52.86;100560.55;125607;1099;104164;-76
2021/04/29 09:54:49;;;;;;;9.00;4.67;;;;;;;18.96;52.81;100556.13;125653;1099;104191;-76
2021/04/29 09:57:24;;;;;;;9.70;5.43;;;;;;;19.03;52.77;100555.27;125641;1096;104137;-76
2021/04/29 09:59:57;;;;;;;9.37;5.37;;;;;;;19.08;52.52;100551.73;125650;1097;104162;-75
2021/04/29 10:02:29;;;;;;;6.97;4.70;;;;;;;19.23;51.93;100567.73;125579;1099;104165;-76
2021/04/29 10:05:04;;;;;;;11.63;5.63;;;;;;;19.32;52.66;100553.52;125633;1097;104197;-75
2021/04/29 10:07:34;;;;;;;8.97;4.53;;;;;;;19.55;50.89;100558.86;125561;1099;104185;-76
2021/04/29 10:10:03;;;;;;;11.43;5.20;;;;;;;19.74;51.98;100552.64;125584;1099;104411;-76
2021/04/29 10:12:32;;;;;;;9.37;5.00;;;;;;;19.81;51.03;100547.34;125491;1099;104453;-75
2021/04/29 10:15:01;;;;;;;11.87;5.03;;;;;;;19.82;51.31;100551.77;125494;1099;104329;-75
2021/04/29 10:17:30;;;;;;;11.33;5.30;;;;;;;19.92;51.58;100549.08;125501;1099;104170;-75
2021/04/29 10:20:00;;;;;;;7.70;4.73;;;;;;;19.95;51.01;100539.34;125555;1099;104293;-75
2021/04/29 10:22:29;;;;;;;12.20;5.30;;;;;;;19.89;51.41;100546.42;125555;1099;104390;-75
2021/04/29 10:24:58;;;;;;;8.30;4.60;;;;;;;19.83;50.63;100546.44;125575;1099;104213;-75
2021/04/29 10:27:29;;;;;;;9.73;4.70;;;;;;;19.82;50.93;100544.68;125483;1099;104168;-76
2021/04/29 10:30:09;;;;;;;10.07;5.27;;;;;;;19.72;51.31;100540.22;125583;1099;104169;-75
2021/04/29 10:32:40;;;;;;;11.97;5.23;;;;;;;19.63;51.37;100534.89;125998;1098;104299;-75
2021/04/29 10:35:21;;;;;;;6.73;4.30;;;;;;;19.53;50.22;100537.56;125609;1099;104329;-75
2021/04/29 10:38:01;;;;;;;11.07;5.17;;;;;;;19.48;50.26;100543.80;126921;1099;103114;-75
2021/04/29 10:40:35;;;;;;;7.60;4.50;;;;;;;19.51;51.11;100538.44;126743;1099;102554;-74
2021/04/29 10:43:06;;;;;;;11.07;5.10;;;;;;;19.50;50.60;100550.88;125702;1099;104278;-74
2021/04/29 10:45:35;;;;;;;13.65;7.95;;;;;;;19.50;50.54;100544.67;125692;1099;104264;-75
2021/04/29 10:48:12;;;;;;;9.57;4.60;;;;;;;19.43;50.69;100541.13;125669;1099;104277;-75
2021/04/29 10:50:45;;;;;;;8.77;4.50;;;;;;;19.40;50.33;100547.33;125581;1099;104320;-75
2021/04/29 10:53:14;;;;;;;;;;;;;;;19.39;49.46;100540.23;125627;1097;104207;-75
2021/04/29 10:55:44;;;;;;;6.97;4.10;;;;;;;19.40;49.67;100534.03;125653;1099;104175;-75
2021/04/29 10:58:24;;;;;;;8.77;4.00;;;;;;;19.47;50.38;100526.92;125605;1099;104229;-75
2021/04/29 11:01:02;;;;;;;6.57;4.17;;;;;;;19.50;48.63;100539.35;125715;1099;104602;-75
2021/04/29 11:03:36;;;;;;;8.07;4.40;;;;;;;19.47;48.53;100536.69;126428;1099;104459;-75
2021/04/29 11:06:11;;;;;;;10.27;4.10;;;;;;;19.44;48.73;100532.24;125724;1099;104294;-76
2021/04/29 11:08:44;;;;;;;9.77;4.73;;;;;;;19.47;48.68;100539.35;125766;1099;104174;-77
2021/04/29 11:11:27;;;;;;;9.53;4.33;;;;;;;19.54;48.31;100528.70;125763;1099;104241;-76
2021/04/29 11:14:05;;;;;;;7.13;3.87;;;;;;;19.72;48.71;100527.78;125726;1099;104066;-77
2021/04/29 11:16:47;;;;;;;7.40;3.77;;;;;;;19.83;48.83;100529.58;125701;1098;104297;-75
2021/04/29 11:19:43;;;;;;;6.87;4.23;;;;;;;19.77;48.19;100522.48;125560;1099;105434;-75
2021/04/29 11:22:24;;;;;;;8.73;4.43;;;;;;;19.78;48.59;100531.38;126243;1099;104182;-78
2021/04/29 11:25:03;;;;;;;9.93;4.60;;;;;;;19.84;48.29;100524.25;126390;1099;104159;-77
2021/04/29 11:27:40;;;;;;;8.53;4.40;;;;;;;19.90;49.02;100529.56;126057;1099;104211;-77